KFUL/FUL METAR and TAF weather

Enter ICAO airport designator
Station Type Date Time Source
KFUL METAR 2020/09/23 17:53 UTC NOAA

KFUL 231753Z 00000KT 5SM HZ CLR 26/16 A3002 RMK AO2 SLP166 T02610156 10261 20172 58002


Station Type Date Time Source
KFUL Decoded METAR 2020/09/23 17:53 UTC NOAA

FULLERTON MUNICIPAL AIRPORT , CA, United States (KFUL) 33-52N 117-59W 35M
Sep 23, 2020 - 01:53 PM EDT / 2020.09.23 1753 UTC
Wind: Calm:0
Visibility: 5 mile(s):0
Sky conditions: clear
Weather: haze
Temperature: 79.0 F (26.1 C)
Dew Point: 60.1 F (15.6 C)
Relative Humidity: 52%
Pressure (altimeter): 30.02 in. Hg (1016 hPa)
Pressure tendency: 0.01 inches (0.2 hPa) lower than three hours ago
ob: KFUL 231753Z 00000KT 5SM HZ CLR 26/16 A3002 RMK AO2 SLP166 T02610156 10261 20172 58002
cycle: 18

Station Type Date Time Source
KFUL TAF UTC NOAA

Error!

Example: see airport list